Time;durP1;ratioP1;P1;durP2;ratioP2;P2;SDS_P1;SDS_P2;PMS_P1;PMS_P2;Temp;Humidity;BMP_temperature;BMP_pressure;BME280_temperature;BME280_humidity;BME280_pressure;Samples;Min_cycle;Max_cycle;Signal;HPM_P1;HPM_P2
2022/08/07 00:01:52;;;;;;;1.57;1.20;;;13.70;93.60;;;;;;5064266;28;20438;-91
2022/08/07 00:04:19;;;;;;;1.20;0.93;;;;;;;;;;5063059;28;20443;-90
2022/08/07 00:09:13;;;;;;;2.80;0.83;;;;;;;;;;5067738;22;20489;-90
2022/08/07 00:11:40;;;;;;;1.53;1.17;;;;;;;;;;5067738;28;20234;-90
2022/08/07 00:14:07;;;;;;;1.47;1.07;;;;;;;;;;5068954;28;20446;-89
2022/08/07 00:16:34;;;;;;;2.20;1.00;;;;;;;;;;5069145;28;20447;-89
2022/08/07 00:19:03;;;;;;;1.07;0.97;;;;;;;;;;5074507;22;20450;-89
2022/08/07 00:21:30;;;;;;;3.20;1.20;;;;;;;;;;5068828;28;20477;-90
2022/08/07 00:23:57;;;;;;;3.23;1.00;;;;;;;;;;5069171;28;20443;-89
2022/08/07 00:26:24;;;;;;;1.00;0.90;;;;;;;;;;5069387;28;20451;-88
2022/08/07 00:28:52;;;;;;;1.40;1.13;;;;;;;;;;5072185;22;20490;-90
2022/08/07 00:31:19;;;;;;;1.17;1.07;;;;;;;;;;5063841;28;20502;-89
2022/08/07 00:33:46;;;;;;;1.93;1.13;;;;;;;;;;5064853;28;20457;-92
2022/08/07 00:36:14;;;;;;;4.43;1.30;;;13.30;98.00;;;;;;5070877;22;20490;-90
2022/08/07 00:38:41;;;;;;;1.80;1.30;;;;;;;;;;5064378;28;20446;-89
2022/08/07 00:41:08;;;;;;;2.70;1.23;;;;;;;;;;5070498;22;20449;-89
2022/08/07 00:43:35;;;;;;;1.90;1.70;;;;;;;;;;5073326;28;20419;-89
2022/08/07 00:46:03;;;;;;;1.20;1.10;;;;;;;;;;5087762;22;20514;-89
2022/08/07 00:48:32;;;;;;;3.70;1.47;;;13.20;99.90;;;;;;5082129;22;20525;-88
2022/08/07 00:50:59;;;;;;;1.57;1.40;;;;;;;;;;5075231;28;20423;-91
2022/08/07 00:53:45;;;;;;;1.90;1.63;;;13.10;99.90;;;;;;5081675;22;20496;-90
2022/08/07 00:56:14;;;;;;;2.13;1.60;;;;;;;;;;5089112;22;20476;-89
2022/08/07 00:58:43;;;;;;;4.87;1.70;;;;;;;;;;5081915;23;20561;-90
2022/08/07 01:01:10;;;;;;;2.70;1.70;;;;;;;;;;5072380;28;20482;-88
2022/08/07 01:03:38;;;;;;;3.30;1.50;;;;;;;;;;5069094;28;20478;-89
2022/08/07 01:06:06;;;;;;;2.10;1.73;;;;;;;;;;5077738;22;20483;-89
2022/08/07 01:08:33;;;;;;;3.90;1.57;;;;;;;;;;5071544;28;20434;-89
2022/08/07 01:11:01;;;;;;;2.30;1.43;;;12.80;99.90;;;;;;5067849;28;20944;-88
2022/08/07 01:13:28;;;;;;;2.13;1.60;;;;;;;;;;5070862;28;20439;-90
2022/08/07 01:15:58;;;;;;;2.23;1.30;;;12.70;99.90;;;;;;5078284;23;20446;-92
2022/08/07 01:18:27;;;;;;;1.67;1.47;;;;;;;;;;5075521;23;20493;-89
2022/08/07 01:21:08;;;;;;;2.03;1.33;;;12.60;99.90;;;;;;5077818;23;20482;-88
2022/08/07 01:23:35;;;;;;;2.10;1.60;;;;;;;;;;5074024;23;20486;-89
2022/08/07 01:26:03;;;;;;;1.97;1.53;;;;;;;;;;5065150;28;20450;-89
2022/08/07 01:28:30;;;;;;;7.20;2.30;;;;;;;;;;5065574;28;20457;-90
2022/08/07 01:30:57;;;;;;;3.00;1.63;;;;;;;;;;5066524;28;20481;-89
2022/08/07 01:33:25;;;;;;;1.53;1.20;;;12.40;99.90;;;;;;5065998;28;20450;-91
2022/08/07 01:35:52;;;;;;;1.60;1.50;;;;;;;;;;5065441;28;20483;-89
2022/08/07 01:38:21;;;;;;;2.20;1.40;;;12.30;99.90;;;;;;5069394;28;20426;-89
2022/08/07 01:40:49;;;;;;;2.13;1.90;;;12.30;99.90;;;;;;5071673;28;20439;-90
2022/08/07 01:43:16;;;;;;;2.00;1.70;;;;;;;;;;5068246;28;20448;-89
2022/08/07 01:45:43;;;;;;;6.10;1.80;;;;;;;;;;5067027;28;20466;-90
2022/08/07 01:48:11;;;;;;;1.50;1.40;;;;;;;;;;5064457;28;20439;-89
2022/08/07 01:50:42;;;;;;;1.80;1.70;;;12.20;99.90;;;;;;5072471;23;20490;-92
2022/08/07 01:53:10;;;;;;;3.30;1.80;;;12.20;99.90;;;;;;5065598;28;20490;-89
2022/08/07 01:55:45;;;;;;;2.33;1.97;;;12.20;99.90;;;;;;5068462;28;20467;-90
2022/08/07 01:58:14;;;;;;;1.80;1.43;;;12.20;99.90;;;;;;5074777;23;20489;-90
2022/08/07 02:00:44;;;;;;;2.17;1.63;;;12.20;99.90;;;;;;5062931;28;20461;-88
2022/08/07 02:03:15;;;;;;;2.60;1.77;;;12.20;99.90;;;;;;5063140;28;20515;-90
2022/08/07 02:05:44;;;;;;;2.27;1.70;;;12.20;99.90;;;;;;5059223;28;20473;-91
2022/08/07 02:08:15;;;;;;;2.33;1.60;;;12.20;99.90;;;;;;5058616;28;20454;-89
2022/08/07 02:10:46;;;;;;;2.13;1.60;;;12.10;99.90;;;;;;5056258;28;20942;-90
2022/08/07 02:13:14;;;;;;;2.00;1.67;;;;;;;;;;5059261;28;20501;-91
2022/08/07 02:15:42;;;;;;;1.77;1.67;;;12.10;99.90;;;;;;5063691;28;20451;-90
2022/08/07 02:18:12;;;;;;;1.63;1.50;;;12.10;99.90;;;;;;5070125;28;20447;-89
2022/08/07 02:20:41;;;;;;;2.33;1.60;;;12.10;99.90;;;;;;5069873;28;20454;-90
2022/08/07 02:23:08;;;;;;;2.53;1.50;;;12.00;99.90;;;;;;5070483;28;20461;-89
2022/08/07 02:25:39;;;;;;;2.03;1.30;;;12.10;99.90;;;;;;5073650;28;20447;-89
2022/08/07 02:28:08;;;;;;;5.20;1.67;;;;;;;;;;5075119;28;20453;-90
2022/08/07 02:30:36;;;;;;;5.60;1.77;;;12.10;99.90;;;;;;5075626;28;20454;-90
2022/08/07 02:33:04;;;;;;;2.10;1.80;;;12.10;99.90;;;;;;5072989;28;20486;-93
2022/08/07 02:35:34;;;;;;;2.07;1.50;;;12.10;99.90;;;;;;5072238;28;20451;-89
2022/08/07 02:38:03;;;;;;;1.40;1.30;;;12.10;99.90;;;;;;5068166;28;20462;-89
2022/08/07 02:40:31;;;;;;;1.87;1.47;;;12.10;99.90;;;;;;5064384;28;20511;-91
2022/08/07 02:42:58;;;;;;;4.00;1.80;;;;;;;;;;5065780;28;20451;-91
2022/08/07 02:45:30;;;;;;;2.93;1.47;;;12.00;99.90;;;;;;5066134;28;20439;-91
2022/08/07 02:47:57;;;;;;;1.90;1.43;;;;;;;;;;5066308;28;20442;-89
2022/08/07 02:50:25;;;;;;;2.43;1.40;;;;;;;;;;5064818;28;20504;-89
2022/08/07 02:52:54;;;;;;;3.20;1.80;;;12.00;99.90;;;;;;5066755;28;20486;-92
2022/08/07 02:55:23;;;;;;;1.70;1.40;;;12.00;99.90;;;;;;5062139;28;20447;-90
2022/08/07 02:57:52;;;;;;;2.23;1.73;;;12.00;99.90;;;;;;5062881;28;21016;-89
2022/08/07 03:00:19;;;;;;;3.43;1.43;;;;;;;;;;5063655;28;20451;-89
2022/08/07 03:02:51;;;;;;;1.60;1.50;;;12.00;99.90;;;;;;5069033;28;20446;-91
2022/08/07 03:05:19;;;;;;;1.40;1.30;;;11.90;99.90;;;;;;5066158;28;20477;-92
2022/08/07 03:07:47;;;;;;;1.40;1.23;;;11.90;99.90;;;;;;5066916;28;20496;-90
2022/08/07 03:10:16;;;;;;;1.50;1.40;;;11.90;99.90;;;;;;5063213;28;20445;-90
2022/08/07 03:12:44;;;;;;;3.77;1.50;;;;;;;;;;5068246;28;20494;-91
2022/08/07 03:15:12;;;;;;;3.50;1.47;;;11.90;99.90;;;;;;5071096;28;20910;-93
2022/08/07 03:17:39;;;;;;;2.27;1.67;;;;;;;;;;5070322;28;20425;-92
2022/08/07 03:20:09;;;;;;;1.80;1.60;;;11.90;99.90;;;;;;5069286;28;20453;-90
2022/08/07 03:22:37;;;;;;;1.50;1.40;;;;;;;;;;5063326;28;20465;-89
2022/08/07 03:25:04;;;;;;;1.73;1.23;;;;;;;;;;5069227;28;20454;-91
2022/08/07 03:27:32;;;;;;;2.20;1.50;;;;;;;;;;5068326;28;20450;-92
2022/08/07 03:30:00;;;;;;;1.60;1.50;;;11.80;99.90;;;;;;5066979;28;20458;-91
2022/08/07 03:32:33;;;;;;;3.57;1.30;;;11.80;99.90;;;;;;5060209;28;20486;-90
2022/08/07 03:35:03;;;;;;;3.30;1.40;;;11.80;99.90;;;;;;5063020;28;20443;-90
2022/08/07 03:37:36;;;;;;;2.73;1.47;;;11.80;99.90;;;;;;5060928;28;20454;-89
2022/08/07 03:40:03;;;;;;;2.70;1.50;;;;;;;;;;5061661;28;20450;-92
2022/08/07 03:42:33;;;;;;;1.83;1.40;;;11.70;99.90;;;;;;5062753;28;20451;-89
2022/08/07 03:45:00;;;;;;;2.00;1.53;;;;;;;;;;5063261;28;20447;-89
2022/08/07 03:47:27;;;;;;;2.80;1.53;;;;;;;;;;5063258;28;20439;-92
2022/08/07 03:49:55;;;;;;;1.83;1.70;;;;;;;;;;5066989;28;20451;-89
2022/08/07 03:52:23;;;;;;;3.23;1.57;;;11.60;99.90;;;;;;5069042;28;20483;-91
2022/08/07 03:54:51;;;;;;;3.00;1.60;;;11.50;99.90;;;;;;5063043;28;20439;-88
2022/08/07 03:57:20;;;;;;;1.57;1.47;;;11.50;99.90;;;;;;5068670;28;20437;-90
2022/08/07 03:59:47;;;;;;;1.60;1.50;;;;;;;;;;5071733;28;20454;-90
2022/08/07 04:02:15;;;;;;;2.13;1.53;;;;;;;;;;5067657;28;20462;-91
2022/08/07 04:04:42;;;;;;;2.50;1.60;;;11.60;99.90;;;;;;5069436;28;20444;-90
2022/08/07 04:07:09;;;;;;;1.53;1.30;;;;;;;;;;5065622;28;20454;-91
2022/08/07 04:09:37;;;;;;;3.00;1.97;;;;;;;;;;5062841;28;20450;-89
2022/08/07 04:12:06;;;;;;;1.93;1.53;;;;;;;;;;5060988;28;20481;-89
2022/08/07 04:14:35;;;;;;;1.70;1.60;;;11.60;99.90;;;;;;5061901;28;20880;-91
2022/08/07 04:17:02;;;;;;;1.60;1.50;;;;;;;;;;5061087;28;20447;-89
2022/08/07 04:19:29;;;;;;;1.90;1.80;;;;;;;;;;5060801;28;20450;-90
2022/08/07 04:21:56;;;;;;;6.93;1.80;;;;;;;;;;5062001;28;20442;-91
2022/08/07 04:24:24;;;;;;;1.87;1.77;;;11.70;99.90;;;;;;5061459;28;20451;-92
2022/08/07 04:26:51;;;;;;;1.40;1.30;;;;;;;;;;5061827;28;20438;-91
2022/08/07 04:29:19;;;;;;;3.60;1.67;;;11.70;99.90;;;;;;5062198;28;20450;-93
2022/08/07 04:31:46;;;;;;;1.60;1.50;;;;;;;;;;5060580;28;20450;-88
2022/08/07 04:34:13;;;;;;;2.20;1.77;;;;;;;;;;5060814;28;20494;-93
2022/08/07 04:36:41;;;;;;;2.50;1.60;;;;;;;;;;5061666;28;20471;-91
2022/08/07 04:39:08;;;;;;;2.33;1.67;;;;;;;;;;5061623;28;20890;-89
2022/08/07 04:41:36;;;;;;;1.33;1.23;;;;;;;;;;5060795;28;20858;-91
2022/08/07 04:44:03;;;;;;;2.10;1.90;;;;;;;;;;5062484;28;20527;-91
2022/08/07 04:46:37;;;;;;;2.17;1.87;;;11.80;99.90;;;;;;5058552;28;20442;-88
2022/08/07 04:49:13;;;;;;;2.33;1.50;;;11.90;99.90;;;;;;5062427;28;20450;-89
2022/08/07 04:51:48;;;;;;;1.50;1.40;;;12.00;99.90;;;;;;5061890;28;20564;-89
2022/08/07 04:54:22;;;;;;;2.20;1.90;;;12.00;99.90;;;;;;5059438;28;20490;-88
2022/08/07 04:56:52;;;;;;;2.77;1.47;;;12.10;99.90;;;;;;5061246;28;20447;-90
2022/08/07 04:59:28;;;;;;;1.77;1.67;;;12.20;99.90;;;;;;5061840;28;20489;-91
2022/08/07 05:02:03;;;;;;;1.70;1.60;;;12.30;99.90;;;;;;5059615;28;20446;-92
2022/08/07 05:04:37;;;;;;;1.80;1.70;;;12.40;99.90;;;;;;5059125;28;20453;-90
2022/08/07 05:07:12;;;;;;;2.50;1.60;;;12.50;99.90;;;;;;5058255;28;20457;-89
2022/08/07 05:09:50;;;;;;;1.93;1.83;;;12.60;99.90;;;;;;5056907;28;20456;-92
2022/08/07 05:12:23;;;;;;;1.97;1.87;;;12.70;99.90;;;;;;5057575;28;20446;-90
2022/08/07 05:14:53;;;;;;;2.20;2.10;;;12.90;99.90;;;;;;5057400;28;20453;-89
2022/08/07 05:17:25;;;;;;;1.77;1.40;;;13.10;99.90;;;;;;5056609;28;20450;-93
2022/08/07 05:19:52;;;;;;;3.23;1.43;;;;;;;;;;5058130;28;20965;-90
2022/08/07 05:22:21;;;;;;;1.80;1.70;;;13.30;99.90;;;;;;5059631;28;20447;-93
2022/08/07 05:24:50;;;;;;;1.63;1.40;;;13.50;99.90;;;;;;5059278;28;20808;-91
2022/08/07 05:27:20;;;;;;;1.90;1.80;;;13.70;99.90;;;;;;5056769;28;20537;-91
2022/08/07 05:29:48;;;;;;;1.47;1.37;;;;;;;;;;5059884;28;20458;-93
2022/08/07 05:32:17;;;;;;;1.83;1.70;;;14.10;99.90;;;;;;5061740;28;20455;-91
2022/08/07 05:34:48;;;;;;;1.93;1.83;;;14.30;99.90;;;;;;5066389;28;20477;-92
2022/08/07 05:37:16;;;;;;;3.00;1.77;;;;;;;;;;5066009;28;20530;-92
2022/08/07 05:39:43;;;;;;;1.50;1.40;;;;;;;;;;5066721;28;20435;-89
2022/08/07 05:42:11;;;;;;;4.67;1.50;;;;;;;;;;5070035;28;20442;-93
2022/08/07 05:44:38;;;;;;;2.67;1.50;;;16.00;99.70;;;;;;5070181;28;20430;-93
2022/08/07 05:47:06;;;;;;;3.60;1.90;;;16.70;95.90;;;;;;5060975;28;20443;-90
2022/08/07 05:49:34;;;;;;;2.10;1.90;;;17.20;93.30;;;;;;5056034;28;20818;-92
2022/08/07 05:52:04;;;;;;;1.97;1.87;;;17.60;92.10;;;;;;5057285;28;20454;-91
2022/08/07 05:54:31;;;;;;;1.70;1.60;;;;;;;;;;5052341;28;20533;-91
2022/08/07 05:56:59;;;;;;;6.20;1.80;;;;;;;;;;5055310;28;20930;-90
2022/08/07 05:59:27;;;;;;;2.53;2.33;;;18.60;90.50;;;;;;5055783;28;20478;-91
2022/08/07 06:01:54;;;;;;;2.60;2.40;;;;;;;;;;5054125;28;20443;-93
2022/08/07 06:04:22;;;;;;;2.20;2.00;;;;;;;;;;5054977;28;20854;-90
2022/08/07 06:06:49;;;;;;;3.23;2.37;;;18.90;89.00;;;;;;5054545;28;20451;-93
2022/08/07 06:09:18;;;;;;;2.80;2.60;;;;;;;;;;5052604;28;20451;-88
2022/08/07 06:11:45;;;;;;;2.67;2.47;;;;;;;;;;5053839;28;20447;-90
2022/08/07 06:14:13;;;;;;;3.00;2.80;;;20.00;88.20;;;;;;5053872;28;20505;-93
2022/08/07 06:16:40;;;;;;;3.20;2.90;;;;;;;;;;5054030;28;20438;-93
2022/08/07 06:19:07;;;;;;;2.57;2.37;;;;;;;;;;5053407;28;20455;-92
2022/08/07 06:21:35;;;;;;;3.30;3.00;;;20.40;85.40;;;;;;5054501;28;21007;-90
2022/08/07 06:24:04;;;;;;;3.53;3.23;;;19.90;88.50;;;;;;5052436;28;20453;-91
2022/08/07 06:26:32;;;;;;;3.10;2.80;;;19.80;90.80;;;;;;5053577;28;20461;-90
2022/08/07 06:28:59;;;;;;;3.47;3.17;;;;;;;;;;5053617;28;20461;-91
2022/08/07 06:31:26;;;;;;;4.20;3.10;;;;;;;;;;5054691;28;20816;-91
2022/08/07 06:33:54;;;;;;;3.30;3.00;;;;;;;;;;5053505;28;20510;-90
2022/08/07 06:36:21;;;;;;;7.60;4.00;;;;;;;;;;5053635;28;20447;-91
2022/08/07 06:38:48;;;;;;;4.43;4.03;;;;;;;;;;5068267;28;20429;-90
2022/08/07 06:41:20;;;;;;;3.73;3.43;;;20.70;92.50;;;;;;5077514;28;20454;-88
2022/08/07 06:43:49;;;;;;;4.33;3.83;;;20.70;92.60;;;;;;5056621;28;20458;-90
2022/08/07 06:46:16;;;;;;;5.17;3.80;;;;;;;;;;5056488;28;20446;-92
2022/08/07 06:48:44;;;;;;;4.50;3.77;;;;;;;;;;5054955;28;20442;-90
2022/08/07 06:51:15;;;;;;;4.13;3.80;;;21.50;90.30;;;;;;5054341;28;20446;-92
2022/08/07 06:53:43;;;;;;;5.10;3.50;;;21.70;87.40;;;;;;5054351;28;20494;-92
2022/08/07 06:56:14;;;;;;;3.33;3.03;;;21.70;84.30;;;;;;5055396;28;20457;-91
2022/08/07 06:58:41;;;;;;;3.37;3.10;;;;;;;;;;5056442;28;20522;-90
2022/08/07 07:01:12;;;;;;;2.70;2.50;;;21.20;87.20;;;;;;5053856;28;20462;-92
2022/08/07 07:03:41;;;;;;;3.87;3.20;;;21.40;85.90;;;;;;5053793;28;20474;-91
2022/08/07 07:06:08;;;;;;;2.83;2.43;;;21.60;84.30;;;;;;5053757;28;20462;-89
2022/08/07 07:08:36;;;;;;;2.40;2.20;;;21.70;83.40;;;;;;5054399;28;20446;-92
2022/08/07 07:11:04;;;;;;;2.20;2.10;;;21.30;84.20;;;;;;5057735;28;20501;-92
2022/08/07 07:13:36;;;;;;;2.20;2.10;;;21.40;81.20;;;;;;5058641;28;20494;-89
2022/08/07 07:16:07;;;;;;;2.80;2.60;;;21.50;81.20;;;;;;5059865;28;20447;-92
2022/08/07 07:18:41;;;;;;;2.43;2.20;;;21.60;80.00;;;;;;5058078;28;20449;-91
2022/08/07 07:21:12;;;;;;;8.60;2.50;;;21.60;80.50;;;;;;5058328;28;20450;-91
2022/08/07 07:23:40;;;;;;;2.80;2.40;;;21.60;78.70;;;;;;5060218;28;20458;-91
2022/08/07 07:26:11;;;;;;;3.43;1.87;;;22.30;78.60;;;;;;5053246;28;20450;-90
2022/08/07 07:28:42;;;;;;;4.00;2.50;;;22.70;74.40;;;;;;5058381;28;20451;-93
2022/08/07 07:31:15;;;;;;;2.40;2.20;;;22.80;72.50;;;;;;5058644;28;20443;-89
2022/08/07 07:33:44;;;;;;;3.00;2.10;;;22.00;75.50;;;;;;5057117;28;20492;-90
2022/08/07 07:36:12;;;;;;;2.30;2.20;;;;;;;;;;5056577;28;20443;-90
2022/08/07 07:38:39;;;;;;;4.43;2.73;;;;;;;;;;5056966;28;20451;-91
2022/08/07 07:41:09;;;;;;;2.83;2.30;;;21.70;74.70;;;;;;5056519;28;20533;-89
2022/08/07 07:43:41;;;;;;;2.03;1.83;;;22.30;73.50;;;;;;5056169;28;20473;-88
2022/08/07 07:46:09;;;;;;;2.40;2.20;;;22.60;72.70;;;;;;5055995;28;20451;-91
2022/08/07 07:48:39;;;;;;;2.23;1.93;;;22.30;71.10;;;;;;5058517;28;20443;-90
2022/08/07 07:51:09;;;;;;;1.90;1.80;;;22.30;71.60;;;;;;5057626;28;20945;-90
2022/08/07 07:53:41;;;;;;;2.10;1.90;;;22.90;68.70;;;;;;5055876;28;20500;-92
2022/08/07 07:56:08;;;;;;;2.00;1.80;;;;;;;;;;5055184;28;20454;-89
2022/08/07 07:58:37;;;;;;;2.90;2.00;;;23.20;66.80;;;;;;5057098;28;20478;-92
2022/08/07 08:01:05;;;;;;;1.33;1.23;;;23.70;63.50;;;;;;5058122;28;20458;-90
2022/08/07 08:03:35;;;;;;;1.90;1.70;;;24.00;61.60;;;;;;5056172;28;20457;-89
2022/08/07 08:06:03;;;;;;;2.10;1.90;;;;;;;;;;5056147;28;20453;-92
2022/08/07 08:08:34;;;;;;;1.70;1.60;;;24.50;60.00;;;;;;5055605;28;20454;-90
2022/08/07 08:11:01;;;;;;;2.33;1.67;;;;;;;;;;5056131;28;20522;-91
2022/08/07 08:13:29;;;;;;;2.40;2.10;;;24.40;59.90;;;;;;5055794;28;20490;-92
2022/08/07 08:16:00;;;;;;;2.03;1.77;;;24.40;58.50;;;;;;5056360;28;20514;-89
2022/08/07 08:18:28;;;;;;;2.57;1.57;;;24.40;58.00;;;;;;5055980;28;20517;-92
2022/08/07 08:20:55;;;;;;;1.83;1.60;;;;;;;;;;5057153;28;20455;-93
2022/08/07 08:28:57;;;;;;;2.00;1.80;;;24.20;56.20;;;;;;5061230;28;20441;-90
2022/08/07 08:31:27;;;;;;;2.40;1.43;;;24.30;57.20;;;;;;5060907;28;20461;-90
2022/08/07 08:33:56;;;;;;;1.23;1.10;;;25.10;54.70;;;;;;5061087;28;20494;-90
2022/08/07 08:36:26;;;;;;;1.37;1.27;;;25.20;53.70;;;;;;5063691;28;20470;-91
2022/08/07 08:38:55;;;;;;;1.23;1.13;;;24.90;53.40;;;;;;5061691;28;20493;-92
2022/08/07 08:41:31;;;;;;;1.23;1.13;;;24.90;54.50;;;;;;5060050;28;20438;-90
2022/08/07 08:44:04;;;;;;;1.43;1.33;;;24.90;54.10;;;;;;5060951;28;20453;-90
2022/08/07 08:46:39;;;;;;;1.27;1.17;;;24.60;52.40;;;;;;5055121;28;20542;-93
2022/08/07 08:49:12;;;;;;;2.17;1.43;;;24.80;53.90;;;;;;5058635;28;20484;-91
2022/08/07 08:51:47;;;;;;;1.33;1.10;;;23.30;48.80;;;;;;5060348;28;20454;-94
2022/08/07 08:54:23;;;;;;;1.40;1.30;;;25.60;54.60;;;;;;5057841;28;20482;-91
2022/08/07 08:56:53;;;;;;;1.57;1.10;;;25.80;50.90;;;;;;5059450;28;20465;-90
2022/08/07 08:59:27;;;;;;;3.00;1.27;;;25.80;51.40;;;;;;5059089;28;20484;-87
2022/08/07 09:02:04;;;;;;;1.40;1.30;;;26.00;54.10;;;;;;5063934;28;20486;-91
2022/08/07 09:04:41;;;;;;;2.80;1.50;;;26.80;51.40;;;;;;5063240;28;20480;-90
2022/08/07 09:07:12;;;;;;;1.93;1.50;;;;;;;;;;5063900;28;20447;-93
2022/08/07 09:09:56;;;;;;;1.33;1.20;;;27.10;49.90;;;;;;5060082;28;20443;-90
2022/08/07 09:12:41;;;;;;;1.37;1.20;;;25.90;51.20;;;;;;5062533;28;20458;-89
2022/08/07 09:15:19;;;;;;;3.43;1.53;;;25.60;51.50;;;;;;5062767;28;20497;-90
2022/08/07 09:18:10;;;;;;;1.20;1.10;;;26.10;52.50;;;;;;5062863;28;20480;-94
2022/08/07 09:20:48;;;;;;;1.83;1.37;;;25.40;50.90;;;;;;5036859;28;20528;-92
2022/08/07 09:23:30;;;;;;;1.47;1.10;;;25.30;51.40;;;;;;5031775;28;20456;-87
2022/08/07 09:26:10;;;;;;;1.30;1.20;;;25.80;52.10;;;;;;5017569;28;20459;-89
2022/08/07 09:28:43;;;;;;;1.50;1.23;;;25.10;51.00;;;;;;5013748;28;20452;-88
2022/08/07 09:31:16;;;;;;;1.10;1.00;;;25.30;45.40;;;;;;5014752;28;20449;-87
2022/08/07 09:34:06;;;;;;;1.20;1.00;;;25.50;42.50;;;;;;5016153;28;20968;-88
2022/08/07 09:36:37;;;;;;;1.30;1.10;;;26.40;46.00;;;;;;5011209;28;20452;-91
2022/08/07 09:39:19;;;;;;;2.13;0.90;;;26.30;44.20;;;;;;5041000;28;20454;-88
2022/08/07 09:41:54;;;;;;;2.20;1.43;;;26.30;45.90;;;;;;5056951;28;20439;-89
2022/08/07 09:44:44;;;;;;;1.57;1.00;;;26.40;45.70;;;;;;5055651;28;20454;-91
2022/08/07 09:47:19;;;;;;;2.10;1.10;;;26.80;44.80;;;;;;5055946;28;20451;-91
2022/08/07 09:49:59;;;;;;;1.57;1.30;;;27.10;44.00;;;;;;5054987;28;20450;-89
2022/08/07 09:52:35;;;;;;;1.67;0.90;;;26.70;44.80;;;;;;5055363;28;20522;-88
2022/08/07 09:55:09;;;;;;;1.67;1.03;;;26.70;45.80;;;;;;5053532;28;20550;-89
2022/08/07 09:58:03;;;;;;;1.40;1.20;;;27.10;39.40;;;;;;5054599;28;20485;-88
2022/08/07 10:00:43;;;;;;;1.20;1.03;;;26.80;47.90;;;;;;5055235;28;20454;-87
2022/08/07 10:03:36;;;;;;;1.27;1.17;;;26.90;53.40;;;;;;5053397;28;20507;-91
2022/08/07 10:06:49;;;;;;;1.10;1.00;;;26.10;42.10;;;;;;5055526;28;20451;-90
2022/08/07 10:09:39;;;;;;;9.60;7.40;;;26.20;61.00;;;;;;5051832;28;20450;-90
2022/08/07 10:12:13;;;;;;;2.43;1.40;;;;;;;;;;5053461;28;20818;-90
2022/08/07 10:14:44;;;;;;;0.90;0.70;;;;;;;;;;5053098;28;21004;-93
2022/08/07 10:17:29;;;;;;;1.00;0.97;;;27.80;44.60;;;;;;5053359;28;20447;-88
2022/08/07 10:20:11;;;;;;;1.30;0.93;;;28.40;43.70;;;;;;5053882;28;20450;-89
2022/08/07 10:22:53;;;;;;;0.70;0.70;;;26.80;39.90;;;;;;5054710;28;20461;-90
2022/08/07 10:25:29;;;;;;;1.50;1.20;;;27.40;40.10;;;;;;5052533;28;20443;-92
2022/08/07 10:28:22;;;;;;;0.70;0.70;;;27.30;41.50;;;;;;5057583;28;20447;-92
2022/08/07 10:31:02;;;;;;;1.33;1.10;;;27.10;37.90;;;;;;5053965;28;20478;-87
2022/08/07 10:33:54;;;;;;;1.67;1.07;;;27.10;38.40;;;;;;5053618;28;20467;-88
2022/08/07 10:36:34;;;;;;;1.13;1.00;;;27.60;37.20;;;;;;5053782;28;20442;-89
2022/08/07 10:39:07;;;;;;;0.90;0.80;;;28.00;37.90;;;;;;5053612;28;20933;-87
2022/08/07 10:41:35;;;;;;;2.40;2.30;;;27.90;36.10;;;;;;5052423;28;20453;-90
2022/08/07 10:44:09;;;;;;;2.50;0.80;;;27.70;35.60;;;;;;5054192;28;20477;-88
2022/08/07 10:46:42;;;;;;;28.70;26.27;;;28.40;48.60;;;;;;5056887;28;20452;-89
2022/08/07 10:49:18;;;;;;;1.37;0.80;;;28.80;49.30;;;;;;5057064;28;20435;-88
2022/08/07 10:51:54;;;;;;;11.60;9.30;;;27.90;53.70;;;;;;5057835;28;20434;-89
2022/08/07 10:54:30;;;;;;;3.03;1.37;;;26.90;37.20;;;;;;5060987;28;20470;-88
2022/08/07 10:57:09;;;;;;;1.00;0.70;;;26.90;38.20;;;;;;5057576;28;20567;-93
2022/08/07 10:59:50;;;;;;;1.67;1.10;;;26.70;36.40;;;;;;5057434;28;20446;-88
2022/08/07 11:02:27;;;;;;;0.93;0.80;;;26.90;33.60;;;;;;5057314;28;20442;-88
2022/08/07 11:05:16;;;;;;;1.20;0.77;;;26.70;33.70;;;;;;5055596;28;20442;-93
2022/08/07 11:07:50;;;;;;;2.13;0.93;;;27.10;32.10;;;;;;5061002;28;20945;-89
2022/08/07 11:10:23;;;;;;;1.47;1.10;;;27.30;33.20;;;;;;5060516;28;20540;-94
2022/08/07 11:12:58;;;;;;;1.30;0.97;;;27.80;31.20;;;;;;5057414;28;20945;-93
2022/08/07 11:15:29;;;;;;;1.00;0.80;;;27.00;32.20;;;;;;5059668;28;20493;-87
2022/08/07 11:18:15;;;;;;;1.10;0.93;;;27.60;30.40;;;;;;5054025;28;20442;-88
2022/08/07 11:20:49;;;;;;;1.80;1.07;;;27.50;30.90;;;;;;5059772;28;20450;-89
2022/08/07 11:23:23;;;;;;;1.43;0.90;;;27.30;30.00;;;;;;5058574;28;20442;-89
2022/08/07 11:25:56;;;;;;;0.80;0.80;;;27.10;32.50;;;;;;5055671;28;20952;-91
2022/08/07 11:28:28;;;;;;;1.53;1.00;;;27.70;33.80;;;;;;5056543;28;20458;-92
2022/08/07 11:30:59;;;;;;;1.17;0.80;;;27.50;35.60;;;;;;5056744;28;20465;-90
2022/08/07 11:33:35;;;;;;;0.70;0.70;;;26.40;41.30;;;;;;5055220;28;20471;-88
2022/08/07 11:36:16;;;;;;;2.60;0.97;;;26.40;39.80;;;;;;5056375;28;20482;-91
2022/08/07 11:38:49;;;;;;;1.80;1.00;;;26.50;37.60;;;;;;5059381;28;20918;-88
2022/08/07 11:41:22;;;;;;;1.67;1.03;;;27.30;35.80;;;;;;5056741;28;20459;-91
2022/08/07 11:44:00;;;;;;;1.50;0.90;;;27.70;38.30;;;;;;5058132;28;20466;-89
2022/08/07 11:46:44;;;;;;;1.13;1.03;;;;;;;;;;5060611;28;20964;-87
2022/08/07 11:49:28;;;;;;;11.70;10.90;;;;;;;;;;5056128;28;20504;-92
2022/08/07 11:52:22;;;;;;;220.50;102.03;;;27.60;51.70;;;;;;5055114;28;20515;-87
2022/08/07 11:54:58;;;;;;;141.50;95.97;;;;;;;;;;5053694;28;20528;-87
2022/08/07 11:57:33;;;;;;;54.63;50.23;;;27.70;44.80;;;;;;5055462;28;20953;-88
2022/08/07 12:00:07;;;;;;;31.83;29.63;;;27.90;45.70;;;;;;5055094;28;20942;-88
2022/08/07 12:02:42;;;;;;;223.07;105.77;;;;;;;;;;5054979;28;20454;-86
2022/08/07 12:05:16;;;;;;;225.77;106.50;;;;;;;;;;5058656;28;20454;-87
2022/08/07 12:07:52;;;;;;;2.17;1.87;;;;;;;;;;5055160;28;20445;-88
2022/08/07 12:10:25;;;;;;;2.53;1.50;;;27.80;52.60;;;;;;5055212;28;20804;-88
2022/08/07 12:12:56;;;;;;;97.00;73.33;;;27.30;48.70;;;;;;5054746;28;21030;-90
2022/08/07 12:15:24;;;;;;;223.37;103.20;;;;;;;;;;5055339;28;20486;-87
2022/08/07 12:17:54;;;;;;;216.83;108.13;;;;;;;;;;5054517;28;20926;-86
2022/08/07 12:20:23;;;;;;;216.80;106.47;;;;;;;;;;5054610;28;20449;-89
2022/08/07 12:23:02;;;;;;;227.20;108.17;;;;;;;;;;5054488;28;20429;-86
2022/08/07 12:28:23;;;;;;;58.03;54.20;;;28.20;44.30;;;;;;5055458;28;20442;-88
2022/08/07 12:30:53;;;;;;;12.63;11.77;;;27.20;44.90;;;;;;5055323;28;20458;-91
2022/08/07 12:33:23;;;;;;;15.53;14.67;;;;;;;;;;5055780;28;20467;-93
2022/08/07 12:35:52;;;;;;;4.97;4.57;;;27.50;45.60;;;;;;5055969;28;20494;-88
2022/08/07 12:38:21;;;;;;;103.40;71.23;;;;;;;;;;5056648;28;20455;-89
2022/08/07 12:40:50;;;;;;;82.87;72.90;;;27.60;48.40;;;;;;5055456;28;20450;-87
2022/08/07 12:43:21;;;;;;;47.43;43.73;;;27.60;46.80;;;;;;5055487;28;20450;-88
2022/08/07 12:45:53;;;;;;;138.30;88.13;;;;;;;;;;5055622;28;21019;-88
2022/08/07 12:48:28;;;;;;;84.07;75.57;;;;;;;;;;5054742;28;20572;-92
2022/08/07 12:51:00;;;;;;;49.57;45.57;;;;;;;;;;5054644;28;20443;-87
2022/08/07 12:53:32;;;;;;;94.30;84.07;;;;;;;;;;5054793;28;20457;-92
2022/08/07 12:56:03;;;;;;;90.60;77.93;;;28.20;50.20;;;;;;5053009;28;20490;-86
2022/08/07 12:58:33;;;;;;;152.00;100.27;;;;;;;;;;5054491;28;20524;-87
2022/08/07 13:01:03;;;;;;;181.93;95.73;;;;;;;;;;5054250;28;20941;-88
2022/08/07 13:03:54;;;;;;;65.07;59.23;;;28.90;52.60;;;;;;5054173;28;20447;-88
2022/08/07 13:06:35;;;;;;;27.47;25.17;;;29.00;48.80;;;;;;5054111;28;20466;-88
2022/08/07 13:09:11;;;;;;;2.90;2.70;;;;;;;;;;5053239;28;20443;-91
2022/08/07 13:11:49;;;;;;;14.77;13.73;;;29.00;46.60;;;;;;5054056;28;20443;-88
2022/08/07 13:14:22;;;;;;;124.67;114.97;;;;;;;;;;5054334;28;20942;-87
2022/08/07 13:16:56;;;;;;;45.30;42.30;;;;;;;;;;5054228;28;20989;-87
2022/08/07 13:19:26;;;;;;;85.77;66.63;;;;;;;;;;5054248;28;20446;-86
2022/08/07 13:21:59;;;;;;;117.47;77.90;;;28.80;51.20;;;;;;5054062;28;20451;-87
2022/08/07 13:24:30;;;;;;;153.73;111.47;;;;;;;;;;5052775;28;20458;-88
2022/08/07 13:27:01;;;;;;;36.27;33.63;;;;;;;;;;5054515;28;20823;-88
2022/08/07 13:29:36;;;;;;;22.43;20.80;;;29.10;47.30;;;;;;5054545;28;20450;-89
2022/08/07 13:32:04;;;;;;;36.23;34.03;;;;;;;;;;5054953;28;20810;-87
2022/08/07 13:34:38;;;;;;;34.67;32.17;;;;;;;;;;5056290;28;20459;-87
2022/08/07 13:37:13;;;;;;;4.77;3.40;;;30.20;38.60;;;;;;5053387;28;20473;-88
2022/08/07 13:39:48;;;;;;;1.70;1.30;;;30.00;39.30;;;;;;5052192;28;20438;-86
2022/08/07 13:42:17;;;;;;;1.47;1.30;;;29.30;37.80;;;;;;5053375;28;20811;-88
2022/08/07 13:44:44;;;;;;;2.73;1.47;;;;;;;;;;5053661;28;20451;-86
2022/08/07 13:47:12;;;;;;;1.60;1.50;;;;;;;;;;5053474;28;20453;-87
2022/08/07 13:49:44;;;;;;;1.80;1.30;;;28.90;37.40;;;;;;5053124;28;20446;-87
2022/08/07 13:52:13;;;;;;;1.27;1.17;;;28.90;38.40;;;;;;5057020;28;20458;-89
2022/08/07 13:54:43;;;;;;;1.43;1.20;;;29.30;39.40;;;;;;5052168;28;20447;-87
2022/08/07 13:57:12;;;;;;;1.80;1.37;;;29.70;37.00;;;;;;5053887;28;20458;-88